Time;durP1;ratioP1;P1;durP2;ratioP2;P2;SDS_P1;SDS_P2;PMS_P1;PMS_P2;Temp;Humidity;BMP_temperature;BMP_pressure;BME280_temperature;BME280_humidity;BME280_pressure;Samples;Min_cycle;Max_cycle;Signal;HPM_P1;HPM_P2
2022/12/05 00:01:27;;;;;;;12.55;9.63;;;;;;;6.52;100.00;98431.88;4998249;28;20103;-63
2022/12/05 00:03:57;;;;;;;12.20;8.98;;;;;;;6.54;100.00;98426.59;4999237;28;20083;-63
2022/12/05 00:06:23;;;;;;;11.82;9.02;;;;;;;6.62;100.00;98433.72;5001809;28;20667;-61
2022/12/05 00:08:49;;;;;;;11.45;8.85;;;;;;;6.61;100.00;98427.75;4982680;28;20034;-61
2022/12/05 00:11:20;;;;;;;10.43;7.72;;;;;;;6.53;100.00;98435.28;5002045;28;20128;-60
2022/12/05 00:13:47;;;;;;;10.90;7.85;;;;;;;6.58;100.00;98432.34;5020796;28;20419;-61
2022/12/05 00:16:15;;;;;;;10.55;7.35;;;;;;;6.59;100.00;98428.78;4999976;28;20038;-61
2022/12/05 00:18:41;;;;;;;11.52;7.50;;;;;;;6.60;100.00;98430.44;4992914;28;20918;-64
2022/12/05 00:21:11;;;;;;;9.52;7.22;;;;;;;6.61;100.00;98432.91;5002709;28;20038;-60
2022/12/05 00:23:37;;;;;;;9.70;7.18;;;;;;;6.65;100.00;98426.53;4986058;28;20062;-59
2022/12/05 00:26:03;;;;;;;9.23;7.15;;;;;;;6.66;100.00;98428.19;5002061;28;20112;-63
2022/12/05 00:28:30;;;;;;;8.38;5.50;;;;;;;6.68;100.00;98431.47;5005544;28;20044;-62
2022/12/05 00:30:56;;;;;;;8.95;5.85;;;;;;;6.58;100.00;98434.91;5017840;28;20042;-61
2022/12/05 00:33:21;;;;;;;11.32;7.18;;;;;;;6.64;100.00;98429.25;5002378;28;20523;-63
2022/12/05 00:35:47;;;;;;;10.18;7.32;;;;;;;6.61;100.00;98401.06;5024598;28;20040;-60
2022/12/05 00:38:12;;;;;;;12.18;7.75;;;;;;;6.75;100.00;98429.19;5008298;28;20486;-63
2022/12/05 00:40:37;;;;;;;10.35;7.47;;;;;;;6.73;100.00;98433.66;5004720;28;20656;-61
2022/12/05 00:43:03;;;;;;;12.10;7.93;;;;;;;6.70;100.00;98439.91;5000683;28;20072;-61
2022/12/05 00:45:28;;;;;;;10.45;7.40;;;;;;;6.70;100.00;98434.75;5001298;28;20061;-61
2022/12/05 00:47:54;;;;;;;11.48;7.88;;;;;;;6.73;100.00;98433.66;4999437;28;20049;-61
2022/12/05 00:50:19;;;;;;;11.10;8.38;;;;;;;6.60;100.00;98422.69;5002578;28;20112;-62
2022/12/05 00:52:44;;;;;;;10.13;7.43;;;;;;;6.61;100.00;98426.91;5002323;28;20072;-61
2022/12/05 00:55:10;;;;;;;11.00;7.53;;;;;;;6.44;100.00;98379.19;4999572;28;20751;-61
2022/12/05 00:57:35;;;;;;;11.27;7.43;;;;;;;6.67;100.00;98416.91;5002108;28;20034;-60
2022/12/05 01:00:01;;;;;;;9.23;6.55;;;;;;;6.65;100.00;98411.03;5000363;28;20040;-62
2022/12/05 01:02:26;;;;;;;10.45;6.65;;;;;;;6.68;100.00;98409.94;5003238;28;20104;-59
2022/12/05 01:04:52;;;;;;;8.35;5.70;;;;;;;6.68;100.00;98410.78;4998543;28;20388;-62
2022/12/05 01:07:17;;;;;;;8.98;6.80;;;;;;;6.66;100.00;98410.09;5000420;28;20049;-64
2022/12/05 01:09:43;;;;;;;10.20;7.15;;;;;;;6.69;100.00;98417.59;4997183;28;20030;-61
2022/12/05 01:12:08;;;;;;;9.75;6.95;;;;;;;6.68;100.00;98418.53;5001606;28;20536;-62
2022/12/05 01:14:34;;;;;;;10.85;7.38;;;;;;;6.67;100.00;98418.66;5001836;28;20657;-62
2022/12/05 01:16:59;;;;;;;11.27;7.53;;;;;;;6.47;100.00;98378.94;5005821;28;20033;-62
2022/12/05 01:19:28;;;;;;;11.63;8.18;;;;;;;6.76;100.00;98424.84;5002143;28;20033;-59
2022/12/05 01:21:54;;;;;;;13.40;8.43;;;;;;;6.77;100.00;98426.47;4986498;28;20076;-63
2022/12/05 01:24:20;;;;;;;11.80;8.45;;;;;;;6.76;100.00;98425.66;5004535;28;20116;-68
2022/12/05 01:26:46;;;;;;;14.20;9.35;;;;;;;6.77;100.00;98427.28;5003960;28;20499;-58
2022/12/05 01:29:13;;;;;;;13.00;9.02;;;;;;;6.80;100.00;98423.66;5011405;28;20145;-59
2022/12/05 01:31:39;;;;;;;12.25;8.35;;;;;;;6.51;100.00;98388.88;5025447;28;20034;-58
2022/12/05 01:34:06;;;;;;;10.77;8.02;;;;;;;6.78;100.00;98439.28;5005203;28;20042;-62
2022/12/05 01:36:32;;;;;;;10.27;6.80;;;;;;;6.78;100.00;98433.31;5029466;28;20033;-62
2022/12/05 01:38:58;;;;;;;11.05;8.00;;;;;;;6.49;100.00;98392.56;5001502;28;20049;-60
2022/12/05 01:41:30;;;;;;;9.48;6.47;;;;;;;6.77;100.00;98429.88;5022715;28;20030;-61
2022/12/05 01:44:00;;;;;;;9.43;6.88;;;;;;;6.70;100.00;98413.25;5005210;28;20175;-58
2022/12/05 01:46:26;;;;;;;;;;;;;;;6.80;100.00;98429.63;5001893;28;20034;-59
2022/12/05 01:48:56;;;;;;;8.98;6.35;;;;;;;6.78;100.00;98420.38;5003007;28;19923;-60
2022/12/05 01:51:22;;;;;;;9.50;6.53;;;;;;;6.84;100.00;98423.25;5001601;28;20037;-61
2022/12/05 01:53:47;;;;;;;10.02;6.25;;;;;;;6.85;100.00;98424.91;5027206;28;20037;-60
2022/12/05 01:56:13;;;;;;;9.50;6.63;;;;;;;6.83;100.00;98424.22;5004918;28;20061;-59
2022/12/05 01:58:40;;;;;;;9.00;6.35;;;;;;;6.79;100.00;98427.16;5005738;28;20034;-62
2022/12/05 02:01:06;;;;;;;8.98;6.43;;;;;;;6.80;100.00;98421.06;4984090;28;20121;-60
2022/12/05 02:03:31;;;;;;;8.57;6.82;;;;;;;6.78;100.00;98426.38;5008800;28;20117;-62
2022/12/05 02:05:58;;;;;;;10.77;7.00;;;;;;;6.83;100.00;98426.00;5024471;28;20508;-62
2022/12/05 02:08:26;;;;;;;10.90;6.85;;;;;;;6.75;100.00;98426.59;4997765;28;20054;-62
2022/12/05 02:10:55;;;;;;;9.82;6.97;;;;;;;6.71;100.00;98418.28;4993426;28;20355;-62
2022/12/05 02:13:33;;;;;;;11.70;8.02;;;;;;;6.54;100.00;98383.47;5006206;28;20029;-63
2022/12/05 02:16:48;;;;;;;9.05;6.72;;;;;;;6.81;100.00;98433.03;5002959;28;20030;-64
2022/12/05 02:19:47;;;;;;;10.20;6.35;;;;;;;6.82;100.00;98427.75;4965384;28;20034;-62
2022/12/05 02:22:31;;;;;;;9.45;6.95;;;;;;;6.78;100.00;98426.38;5002572;28;20045;-63
2022/12/05 02:25:18;;;;;;;10.95;6.50;;;;;;;6.54;100.00;98391.25;5022978;28;20057;-67
2022/12/05 02:28:07;;;;;;;9.90;6.50;;;;;;;6.74;100.00;98432.72;5003125;28;20030;-64
2022/12/05 02:30:54;;;;;;;12.05;6.15;;;;;;;6.65;100.00;98415.38;4994694;28;20033;-62
2022/12/05 02:33:24;;;;;;;11.32;6.78;;;;;;;6.70;100.00;98401.16;5003276;28;20444;-61
2022/12/05 02:35:58;;;;;;;8.85;5.82;;;;;;;6.76;100.00;98417.09;5008674;28;20041;-62
2022/12/05 02:38:42;;;;;;;9.13;5.68;;;;;;;6.69;100.00;98407.25;4998817;28;20037;-63
2022/12/05 02:41:21;;;;;;;8.82;5.43;;;;;;;6.70;100.00;98401.16;5018070;28;20044;-60
2022/12/05 02:44:14;;;;;;;8.20;5.43;;;;;;;6.80;100.00;98416.72;5004627;28;20027;-61
2022/12/05 02:46:39;;;;;;;9.40;5.15;;;;;;;6.56;100.00;98369.63;4997479;28;20025;-63
2022/12/05 02:49:10;;;;;;;8.27;5.57;;;;;;;6.84;100.00;98406.94;4997650;28;20037;-60
2022/12/05 02:51:45;;;;;;;7.18;4.95;;;;;;;6.88;100.00;98409.16;4986225;28;20176;-63
2022/12/05 02:54:13;;;;;;;8.57;5.18;;;;;;;6.59;100.00;98356.44;4984039;28;20046;-61
2022/12/05 02:56:39;;;;;;;9.40;6.00;;;;;;;6.80;100.00;98408.16;5019834;28;20029;-60
2022/12/05 02:59:05;;;;;;;8.35;5.53;;;;;;;6.50;100.00;98373.53;5018181;28;20030;-61
2022/12/05 03:01:31;;;;;;;8.82;5.22;;;;;;;6.79;100.00;98419.41;5003898;28;20095;-64
2022/12/05 03:03:58;;;;;;;7.57;5.30;;;;;;;6.76;100.00;98407.59;4981970;28;20037;-59
2022/12/05 03:06:25;;;;;;;6.88;4.88;;;;;;;6.63;100.00;98363.84;5003980;28;20030;-62
2022/12/05 03:08:55;;;;;;;8.02;5.57;;;;;;;6.87;100.00;98404.13;5017207;28;20030;-62
2022/12/05 03:11:20;;;;;;;;;;;;;;;6.87;100.00;98409.28;4997831;28;20124;-63
2022/12/05 03:13:55;;;;;;;8.32;5.05;;;;;;;6.87;100.00;98401.53;4999840;28;19917;-59
2022/12/05 03:16:37;;;;;;;8.02;5.35;;;;;;;6.90;100.00;98404.69;4996796;28;20036;-63
2022/12/05 03:19:30;;;;;;;8.80;5.20;;;;;;;6.88;100.00;98405.75;5004217;28;20037;-62
2022/12/05 03:21:59;;;;;;;8.68;5.65;;;;;;;6.86;100.00;98405.91;5015410;28;20064;-62
2022/12/05 03:24:25;;;;;;;8.60;5.65;;;;;;;6.82;100.00;98393.34;5018684;28;20029;-61
2022/12/05 03:27:12;;;;;;;7.80;5.53;;;;;;;6.85;100.00;98403.44;4983060;28;20033;-68
2022/12/05 03:30:24;;;;;;;9.60;5.90;;;;;;;6.82;100.00;98407.06;5001233;28;20029;-60
2022/12/05 03:32:57;;;;;;;9.30;4.95;;;;;;;6.87;100.00;98411.88;4995512;28;20046;-59
2022/12/05 03:35:46;;;;;;;9.52;5.72;;;;;;;6.86;100.00;98408.47;5000909;28;20044;-60
2022/12/05 03:38:12;;;;;;;8.03;5.63;;;;;;;6.88;100.00;98416.09;5021862;28;20029;-63
2022/12/05 03:40:43;;;;;;;9.50;6.13;;;;;;;6.89;100.00;98410.78;4985563;28;20336;-60
2022/12/05 03:43:24;;;;;;;7.75;5.70;;;;;;;6.79;100.00;98402.16;5007376;28;20034;-60
2022/12/05 03:46:04;;;;;;;7.93;5.88;;;;;;;6.50;100.00;98363.22;5014532;28;20640;-62
2022/12/05 03:48:33;;;;;;;;;;;;;;;6.82;100.00;98399.31;4997184;28;20080;-63
2022/12/05 03:50:59;;;;;;;7.40;5.07;;;;;;;6.55;100.00;98348.13;5005525;28;19956;-60
2022/12/05 03:53:31;;;;;;;8.35;5.75;;;;;;;6.91;100.00;98387.41;5004943;28;20087;-61
2022/12/05 03:56:07;;;;;;;9.43;6.07;;;;;;;6.87;100.00;98392.00;4999004;28;20798;-59
2022/12/05 03:58:50;;;;;;;8.25;5.88;;;;;;;6.85;100.00;98380.16;4999669;28;20036;-60
2022/12/05 04:01:16;;;;;;;7.68;5.95;;;;;;;6.89;100.00;98382.34;5002048;28;20049;-61
2022/12/05 04:04:05;;;;;;;8.00;5.68;;;;;;;6.94;100.00;98379.41;4988740;28;20029;-63
2022/12/05 04:06:37;;;;;;;7.70;5.53;;;;;;;6.91;100.00;98371.91;4986565;28;20180;-63
2022/12/05 04:09:12;;;;;;;8.27;5.18;;;;;;;6.90;100.00;98368.50;5000018;28;20040;-64
2022/12/05 04:11:42;;;;;;;7.47;5.20;;;;;;;6.85;100.00;98368.06;4985719;28;20069;-64
2022/12/05 04:14:11;;;;;;;8.13;5.50;;;;;;;6.87;100.00;98376.50;5011509;28;20037;-60
2022/12/05 04:22:32;;;;;;;8.75;5.63;;;;;;;6.93;100.00;98390.69;4998498;28;20135;-61
2022/12/05 04:28:09;;;;;;;7.47;5.13;;;;;;;6.84;100.00;98387.09;5012848;28;20350;-65
2022/12/05 04:30:43;;;;;;;8.80;5.88;;;;;;;6.76;100.00;98384.31;4999078;28;20072;-59
2022/12/05 04:33:11;;;;;;;8.32;5.80;;;;;;;6.82;100.00;98383.81;5002637;28;20319;-60
2022/12/05 04:35:41;;;;;;;8.50;5.90;;;;;;;6.80;100.00;98369.38;5004934;28;20038;-65
2022/12/05 04:38:09;;;;;;;;;;;;;;;6.88;100.00;98393.66;5014735;28;20045;-63
2022/12/05 04:40:43;;;;;;;8.20;5.53;;;;;;;6.85;100.00;98383.56;5000735;28;19927;-60
2022/12/05 04:43:09;;;;;;;8.50;5.63;;;;;;;6.77;100.00;98391.13;4995450;28;20113;-60
2022/12/05 04:45:36;;;;;;;8.65;5.80;;;;;;;6.80;100.00;98384.88;5017175;28;20034;-60
2022/12/05 04:48:08;;;;;;;8.60;6.05;;;;;;;6.84;100.00;98383.69;5011999;28;20141;-61
2022/12/05 04:50:35;;;;;;;8.25;5.40;;;;;;;6.66;100.00;98350.69;4981445;28;20030;-62
2022/12/05 04:53:02;;;;;;;8.40;5.70;;;;;;;6.87;100.00;98373.91;4982859;28;20033;-62
2022/12/05 04:55:29;;;;;;;7.72;5.07;;;;;;;6.88;100.00;98370.41;4981252;28;20053;-62
2022/12/05 04:58:14;;;;;;;7.90;5.10;;;;;;;6.97;100.00;98370.56;5000253;28;20052;-60
2022/12/05 05:00:45;;;;;;;7.90;5.20;;;;;;;6.98;100.00;98387.72;5000103;28;20529;-59
2022/12/05 05:03:17;;;;;;;8.05;4.93;;;;;;;6.98;100.00;98390.31;5001113;28;20079;-62
2022/12/05 05:05:46;;;;;;;7.13;4.65;;;;;;;6.99;100.00;98382.44;4998870;28;20458;-62
2022/12/05 05:08:17;;;;;;;7.75;4.95;;;;;;;6.99;100.00;98385.03;5002203;28;20081;-67
2022/12/05 05:10:53;;;;;;;7.35;5.00;;;;;;;6.98;100.00;98385.13;4996171;28;20814;-60
2022/12/05 05:13:19;;;;;;;8.38;4.80;;;;;;;6.73;100.00;98341.47;5001782;28;20034;-62
2022/12/05 05:15:44;;;;;;;7.70;4.60;;;;;;;7.01;100.00;98395.22;5002188;28;20100;-60
2022/12/05 05:18:09;;;;;;;6.85;4.13;;;;;;;7.00;100.00;98396.97;5006166;28;20025;-62
2022/12/05 05:20:35;;;;;;;5.65;3.10;;;;;;;6.91;100.00;98395.16;5002789;28;20140;-64
2022/12/05 05:23:00;;;;;;;5.45;2.97;;;;;;;6.89;100.00;98391.88;4999184;28;20925;-61
2022/12/05 05:25:26;;;;;;;5.50;2.95;;;;;;;6.81;100.00;98384.78;4995536;28;20109;-61
2022/12/05 05:27:53;;;;;;;5.28;2.90;;;;;;;6.84;100.00;98396.59;5015201;28;20791;-60
2022/12/05 05:30:20;;;;;;;5.00;2.80;;;;;;;6.86;100.00;98398.13;5012178;28;20034;-62
2022/12/05 05:32:46;;;;;;;7.03;2.88;;;;;;;6.70;100.00;98362.38;4997714;28;20030;-58
2022/12/05 05:35:12;;;;;;;5.70;3.08;;;;;;;7.03;100.00;98395.94;4999591;28;20064;-63
2022/12/05 05:37:38;;;;;;;9.13;3.42;;;;;;;6.92;100.00;98389.88;4985588;28;20476;-62
2022/12/05 05:40:05;;;;;;;5.90;2.83;;;;;;;7.04;100.00;98405.31;4993539;28;20644;-63
2022/12/05 05:42:31;;;;;;;5.50;3.03;;;;;;;7.06;100.00;98412.00;5001065;28;20076;-64
2022/12/05 05:44:56;;;;;;;5.63;3.13;;;;;;;7.06;100.00;98406.84;5004245;28;20419;-60
2022/12/05 05:47:22;;;;;;;5.40;3.05;;;;;;;6.99;100.00;98408.28;5000028;28;20030;-66
2022/12/05 05:49:47;;;;;;;5.68;3.05;;;;;;;7.00;100.00;98415.06;4985602;28;20726;-60
2022/12/05 05:52:13;;;;;;;5.03;2.97;;;;;;;6.91;100.00;98413.25;4999837;28;20097;-60
2022/12/05 05:54:38;;;;;;;6.13;3.17;;;;;;;6.73;100.00;98395.75;4999910;28;20548;-61
2022/12/05 05:57:03;;;;;;;4.70;2.58;;;;;;;6.63;100.00;98363.03;5000259;28;20030;-60
2022/12/05 05:59:29;;;;;;;5.97;3.00;;;;;;;6.95;100.00;98419.00;4997371;28;20091;-61
2022/12/05 06:01:54;;;;;;;5.25;2.90;;;;;;;6.99;100.00;98417.78;4996010;28;20044;-60
2022/12/05 06:04:20;;;;;;;5.28;2.90;;;;;;;7.02;100.00;98426.09;5001365;28;20469;-58
2022/12/05 06:06:45;;;;;;;5.38;2.70;;;;;;;7.01;100.00;98432.25;5000431;28;20036;-61
2022/12/05 06:09:10;;;;;;;4.95;2.70;;;;;;;7.02;100.00;98433.88;4997029;28;20030;-62
2022/12/05 06:11:36;;;;;;;5.28;2.70;;;;;;;7.00;100.00;98420.25;5012559;28;20041;-61
2022/12/05 06:14:01;;;;;;;5.40;2.95;;;;;;;6.95;100.00;98426.75;5002443;28;20147;-62
2022/12/05 06:16:29;;;;;;;6.78;3.30;;;;;;;6.97;100.00;98428.25;5003074;28;20025;-59
2022/12/05 06:18:54;;;;;;;5.88;2.78;;;;;;;6.91;100.00;98421.00;5016242;28;20042;-61
2022/12/05 06:21:20;;;;;;;5.38;3.05;;;;;;;6.95;100.00;98432.72;5000016;28;20029;-61
2022/12/05 06:23:47;;;;;;;6.68;3.17;;;;;;;6.92;100.00;98438.16;5005896;28;20644;-63
2022/12/05 06:26:15;;;;;;;5.60;3.17;;;;;;;6.92;100.00;98422.66;4999391;28;20854;-61
2022/12/05 06:28:41;;;;;;;4.78;2.67;;;;;;;6.90;100.00;98427.94;5003175;28;20034;-64
2022/12/05 06:31:12;;;;;;;4.93;2.70;;;;;;;7.00;100.00;98443.50;5013052;28;20030;-65
2022/12/05 06:33:37;;;;;;;5.38;3.03;;;;;;;6.95;100.00;98442.25;5017502;28;20092;-61
2022/12/05 06:36:05;;;;;;;4.85;2.47;;;;;;;6.99;100.00;98452.22;5005083;28;20042;-60
2022/12/05 06:38:31;;;;;;;5.30;2.83;;;;;;;6.68;100.00;98412.53;5004932;28;20082;-64
2022/12/05 06:40:56;;;;;;;5.10;2.90;;;;;;;6.87;100.00;98460.97;5004000;28;20061;-66
2022/12/05 06:43:22;;;;;;;6.28;3.22;;;;;;;6.91;100.00;98444.28;5001561;28;20034;-65
2022/12/05 06:45:51;;;;;;;6.30;3.05;;;;;;;7.03;100.00;98452.81;4996506;28;20107;-67
2022/12/05 06:48:16;;;;;;;5.35;3.17;;;;;;;6.93;100.00;98456.09;4999218;28;20092;-65
2022/12/05 06:50:51;;;;;;;5.88;3.38;;;;;;;6.93;100.00;98452.72;5000677;28;20655;-60
2022/12/05 06:53:18;;;;;;;6.15;3.60;;;;;;;6.94;100.00;98451.78;5017532;28;20137;-62
2022/12/05 06:55:44;;;;;;;5.75;3.17;;;;;;;6.92;100.00;98451.09;4985025;28;20038;-63
2022/12/05 06:58:09;;;;;;;6.10;3.50;;;;;;;6.95;100.00;98455.19;5007717;28;20064;-60
2022/12/05 07:03:18;;;;;;;7.30;4.07;;;;;;;6.72;100.00;98427.69;5000314;28;20033;-64
2022/12/05 07:05:44;;;;;;;7.60;5.10;;;;;;;6.90;100.00;98456.38;5000933;28;20053;-60
2022/12/05 07:08:09;;;;;;;7.85;5.10;;;;;;;6.99;100.00;98466.91;5001778;28;20054;-61
2022/12/05 07:10:35;;;;;;;7.75;4.55;;;;;;;6.71;100.00;98426.03;5001606;28;20116;-60
2022/12/05 07:13:00;;;;;;;7.25;4.03;;;;;;;6.93;100.00;98463.06;5001220;28;20041;-59
2022/12/05 07:15:25;;;;;;;6.63;3.53;;;;;;;6.85;100.00;98457.69;5001497;28;20034;-61
2022/12/05 07:17:51;;;;;;;4.40;1.80;;;;;;;6.72;100.00;98445.78;5003415;28;20033;-61
2022/12/05 07:20:16;;;;;;;3.85;1.58;;;;;;;6.86;100.00;98480.84;5012581;28;20941;-56
2022/12/05 07:22:42;;;;;;;4.47;2.00;;;;;;;6.97;100.00;98497.22;5003257;28;20106;-61
2022/12/05 07:25:08;;;;;;;5.72;2.65;;;;;;;6.85;100.00;98476.59;5003170;28;20026;-61
2022/12/05 07:27:33;;;;;;;4.60;1.90;;;;;;;6.90;100.00;98486.59;5003761;28;20041;-60
2022/12/05 07:29:59;;;;;;;5.15;2.03;;;;;;;6.89;100.00;98482.34;4999576;28;20030;-64
2022/12/05 07:32:24;;;;;;;5.07;2.30;;;;;;;6.86;100.00;98470.50;5004136;28;20624;-61
2022/12/05 07:34:49;;;;;;;4.97;2.20;;;;;;;6.89;100.00;98474.59;5025909;28;20498;-57
2022/12/05 07:37:15;;;;;;;4.68;2.20;;;;;;;6.95;100.00;98479.25;5019551;28;20822;-61
2022/12/05 07:39:40;;;;;;;4.88;2.60;;;;;;;6.92;100.00;98469.19;5004161;28;20662;-63
2022/12/05 07:42:06;;;;;;;8.85;3.03;;;;;;;6.98;100.00;98473.03;5000612;28;20033;-61
2022/12/05 07:44:31;;;;;;;5.63;3.00;;;;;;;6.92;100.00;98474.34;5003901;28;20034;-63
2022/12/05 07:46:57;;;;;;;5.72;3.10;;;;;;;7.00;100.00;98471.94;5009733;28;20048;-62
2022/12/05 07:49:23;;;;;;;6.32;3.58;;;;;;;7.01;100.00;98477.94;4987455;28;20033;-62
2022/12/05 07:51:49;;;;;;;7.05;3.90;;;;;;;7.01;100.00;98473.59;5011680;28;20032;-63
2022/12/05 07:54:14;;;;;;;6.85;4.03;;;;;;;7.00;100.00;98484.88;5005968;28;20037;-62
2022/12/05 07:56:40;;;;;;;7.28;4.03;;;;;;;6.92;100.00;98472.59;5002843;28;20060;-63
2022/12/05 07:59:05;;;;;;;6.85;4.03;;;;;;;6.98;100.00;98470.44;5000998;28;20165;-62
2022/12/05 08:01:30;;;;;;;6.72;3.63;;;;;;;7.02;100.00;98482.16;5000268;28;20280;-60
2022/12/05 08:03:58;;;;;;;7.15;4.28;;;;;;;6.99;100.00;98467.75;5003855;28;20041;-63
2022/12/05 08:06:31;;;;;;;6.57;3.60;;;;;;;7.02;100.00;98474.41;4986658;28;20025;-67
2022/12/05 08:08:57;;;;;;;7.78;4.20;;;;;;;7.06;100.00;98483.56;4997848;28;20081;-63
2022/12/05 08:11:25;;;;;;;6.43;3.72;;;;;;;7.05;100.00;98471.59;5003869;28;20109;-63
2022/12/05 08:13:51;;;;;;;7.50;4.15;;;;;;;7.06;100.00;98473.22;4996128;28;20057;-63
2022/12/05 08:16:22;;;;;;;7.35;4.05;;;;;;;7.09;100.00;98465.22;5000017;28;20064;-61
2022/12/05 08:18:48;;;;;;;7.22;4.35;;;;;;;7.08;100.00;98472.16;5002323;28;20043;-64
2022/12/05 08:21:16;;;;;;;6.85;3.60;;;;;;;7.13;100.00;98467.41;5007360;28;20087;-63
2022/12/05 08:23:42;;;;;;;7.32;3.90;;;;;;;7.13;100.00;98469.19;4991388;28;20124;-66
2022/12/05 08:26:23;;;;;;;6.05;3.13;;;;;;;7.11;100.00;98469.31;4985349;28;20038;-63
2022/12/05 08:29:11;;;;;;;5.85;2.83;;;;;;;7.14;100.00;98488.94;5001476;28;20404;-62
2022/12/05 08:31:48;;;;;;;6.00;2.88;;;;;;;7.16;100.00;98492.22;5002049;28;20034;-60
2022/12/05 08:34:15;;;;;;;6.00;3.60;;;;;;;7.11;100.00;98492.56;5003017;28;20104;-64
2022/12/05 08:36:41;;;;;;;8.52;3.92;;;;;;;7.09;100.00;98504.81;5001934;28;20493;-64
2022/12/05 08:39:07;;;;;;;5.38;3.03;;;;;;;7.04;100.00;98494.00;5009493;28;20033;-64
2022/12/05 08:41:33;;;;;;;8.02;3.90;;;;;;;7.07;100.00;98493.78;4982173;28;20049;-63
2022/12/05 08:44:01;;;;;;;6.80;3.80;;;;;;;7.00;100.00;98494.41;5000592;28;20092;-70
2022/12/05 08:46:28;;;;;;;7.10;4.47;;;;;;;7.05;100.00;98506.00;5018810;28;20683;-61
2022/12/05 08:48:53;;;;;;;5.88;3.58;;;;;;;7.10;100.00;98503.03;4983000;28;20124;-62
2022/12/05 08:51:19;;;;;;;5.78;3.40;;;;;;;7.16;100.00;98509.50;5009554;28;20412;-69
2022/12/05 08:53:44;;;;;;;5.85;3.13;;;;;;;7.14;100.00;98504.44;5006879;28;20038;-65
2022/12/05 08:56:10;;;;;;;7.00;3.50;;;;;;;7.13;100.00;98510.56;5005929;28;20030;-60
2022/12/05 08:58:36;;;;;;;6.43;3.80;;;;;;;7.07;100.00;98505.88;5000973;28;20453;-60
2022/12/05 09:01:20;;;;;;;5.68;3.05;;;;;;;7.10;100.00;98514.22;4999674;28;20084;-64
2022/12/05 09:03:46;;;;;;;6.65;3.58;;;;;;;7.12;100.00;98511.50;4999232;28;20117;-59
2022/12/05 09:06:12;;;;;;;6.35;3.80;;;;;;;7.09;100.00;98498.81;5001229;28;20072;-66
2022/12/05 09:08:39;;;;;;;5.45;2.70;;;;;;;7.18;100.00;98528.28;4986127;28;20022;-60
2022/12/05 09:11:06;;;;;;;5.22;2.75;;;;;;;7.27;100.00;98514.59;4983275;28;20406;-60
2022/12/05 09:13:32;;;;;;;6.88;2.80;;;;;;;7.25;100.00;98512.13;5026693;28;20080;-60
2022/12/05 09:15:57;;;;;;;4.97;2.47;;;;;;;7.22;100.00;98520.13;5004618;28;20842;-62
2022/12/05 09:18:23;;;;;;;5.57;2.70;;;;;;;7.24;100.00;98532.94;5004355;28;20026;-62
2022/12/05 09:20:48;;;;;;;5.72;2.90;;;;;;;7.25;100.00;98521.69;5003882;28;20030;-62
2022/12/05 09:23:13;;;;;;;5.65;2.97;;;;;;;7.03;100.00;98494.97;5003294;28;20120;-64
2022/12/05 09:25:39;;;;;;;6.25;3.20;;;;;;;7.23;100.00;98534.72;4997087;28;20469;-61
2022/12/05 09:28:04;;;;;;;7.25;3.53;;;;;;;6.99;100.00;98488.44;5003999;28;20029;-60
2022/12/05 09:30:30;;;;;;;6.78;3.53;;;;;;;7.25;100.00;98527.66;5002158;28;20377;-67
2022/12/05 09:32:55;;;;;;;6.70;3.90;;;;;;;7.22;100.00;98527.91;4998120;28;20113;-60
2022/12/05 09:35:20;;;;;;;6.75;4.07;;;;;;;7.16;100.00;98532.78;5003920;28;20062;-62
2022/12/05 09:37:46;;;;;;;7.32;4.18;;;;;;;7.17;100.00;98531.81;5008359;28;20390;-61
2022/12/05 09:40:16;;;;;;;7.97;4.53;;;;;;;6.90;100.00;98505.50;5004269;28;20124;-63
2022/12/05 09:43:03;;;;;;;9.20;4.88;;;;;;;7.16;100.00;98543.13;4975691;28;20073;-69
2022/12/05 09:45:34;;;;;;;7.00;3.47;;;;;;;7.19;100.00;98537.69;4986040;28;20400;-65
2022/12/05 09:48:15;;;;;;;6.57;3.47;;;;;;;7.19;100.00;98537.69;5019378;28;20034;-59
2022/12/05 09:50:44;;;;;;;6.43;3.83;;;;;;;7.17;100.00;98540.38;4988679;28;20400;-64
2022/12/05 09:53:22;;;;;;;6.43;3.67;;;;;;;7.13;100.00;98539.00;5023775;28;20022;-61
2022/12/05 09:55:55;;;;;;;7.28;3.58;;;;;;;7.13;100.00;98541.59;5007697;28;20280;-62
2022/12/05 09:58:25;;;;;;;8.90;4.47;;;;;;;7.06;100.00;98543.03;4988967;28;20064;-62
2022/12/05 10:00:58;;;;;;;8.48;4.82;;;;;;;7.00;100.00;98534.00;4987646;28;20064;-65
2022/12/05 10:03:53;;;;;;;9.68;5.35;;;;;;;7.05;100.00;98546.56;4987217;28;20485;-64
2022/12/05 10:06:24;;;;;;;9.93;5.47;;;;;;;7.14;100.00;98525.13;5012168;28;20045;-61
2022/12/05 10:09:11;;;;;;;10.10;5.78;;;;;;;7.17;100.00;98532.63;5004157;28;20030;-61
2022/12/05 10:11:42;;;;;;;8.90;4.85;;;;;;;7.20;100.00;98531.56;5005255;28;20060;-63
2022/12/05 10:14:19;;;;;;;8.13;5.18;;;;;;;7.12;100.00;98529.63;5000952;28;21411;-61
2022/12/05 10:16:54;;;;;;;9.15;5.78;;;;;;;7.17;100.00;98531.81;4992087;28;20124;-61
2022/12/05 10:19:37;;;;;;;9.57;5.30;;;;;;;7.13;100.00;98523.47;5006280;28;20489;-63
2022/12/05 10:22:30;;;;;;;8.95;4.97;;;;;;;7.19;100.00;98535.09;5002868;28;20611;-60
2022/12/05 10:25:00;;;;;;;9.07;4.63;;;;;;;7.10;100.00;98524.56;4990323;28;20084;-62
2022/12/05 10:27:37;;;;;;;8.60;4.50;;;;;;;7.19;100.00;98532.50;5020421;28;20025;-60
2022/12/05 10:30:05;;;;;;;9.77;6.05;;;;;;;6.94;100.00;98493.13;4990639;28;20768;-63
2022/12/05 10:32:43;;;;;;;11.10;7.22;;;;;;;7.16;100.00;98525.81;4987809;28;20026;-64
2022/12/05 10:35:33;;;;;;;9.60;6.00;;;;;;;7.20;100.00;98518.63;5012207;28;20054;-61
2022/12/05 10:38:06;;;;;;;10.75;5.53;;;;;;;7.18;100.00;98526.53;4988210;28;20041;-66
2022/12/05 10:40:38;;;;;;;8.13;4.07;;;;;;;7.13;100.00;98528.66;4989379;28;20041;-64
2022/12/05 10:43:05;;;;;;;7.50;3.58;;;;;;;7.12;100.00;98524.44;5003877;28;20033;-60
2022/12/05 10:45:31;;;;;;;6.93;3.63;;;;;;;7.06;100.00;98507.66;5007527;28;20507;-67
2022/12/05 10:47:56;;;;;;;6.25;3.22;;;;;;;7.08;100.00;98523.88;5001438;28;20034;-62
2022/12/05 10:50:27;;;;;;;6.13;3.28;;;;;;;7.09;100.00;98519.50;5005922;28;20037;-63
2022/12/05 10:52:53;;;;;;;6.75;3.22;;;;;;;7.09;100.00;98525.50;5004697;28;20112;-62
2022/12/05 10:55:18;;;;;;;7.30;3.60;;;;;;;7.11;100.00;98520.19;5005320;28;20084;-63
2022/12/05 10:57:50;;;;;;;7.25;3.47;;;;;;;7.09;100.00;98511.75;5001644;28;20113;-59
2022/12/05 11:00:21;;;;;;;7.30;3.50;;;;;;;7.10;100.00;98510.78;4988930;28;20030;-64
2022/12/05 11:02:48;;;;;;;7.90;3.83;;;;;;;7.17;100.00;98511.94;5004413;28;20037;-62
2022/12/05 11:05:14;;;;;;;7.47;3.90;;;;;;;7.15;100.00;98507.84;4996853;28;20117;-60
2022/12/05 11:07:42;;;;;;;9.25;4.22;;;;;;;7.18;100.00;98513.59;5005350;28;20145;-65
2022/12/05 11:10:27;;;;;;;8.50;4.55;;;;;;;7.17;100.00;98505.94;4998825;28;20046;-62
2022/12/05 11:12:54;;;;;;;8.85;4.60;;;;;;;7.23;100.00;98511.44;5013732;28;20117;-66
2022/12/05 11:15:24;;;;;;;9.88;5.22;;;;;;;7.17;100.00;98505.94;4997673;28;20030;-62
2022/12/05 11:17:51;;;;;;;9.57;5.43;;;;;;;7.23;100.00;98508.88;4996560;28;20030;-58
2022/12/05 11:20:24;;;;;;;9.75;5.72;;;;;;;7.17;100.00;98504.19;4993244;28;20489;-59
2022/12/05 11:22:52;;;;;;;10.05;5.07;;;;;;;7.18;100.00;98507.59;4999554;28;20021;-59
2022/12/05 11:25:27;;;;;;;9.23;5.70;;;;;;;7.18;100.00;98511.00;4999412;28;20722;-64
2022/12/05 11:27:53;;;;;;;10.13;5.53;;;;;;;7.10;100.00;98490.09;5008734;28;20543;-67
2022/12/05 11:30:21;;;;;;;9.77;5.65;;;;;;;7.15;100.00;98484.56;5018314;28;20042;-61
2022/12/05 11:32:48;;;;;;;10.27;5.63;;;;;;;7.25;100.00;98488.06;5000127;28;20481;-64
2022/12/05 11:35:26;;;;;;;9.88;6.10;;;;;;;7.22;100.00;98480.53;5002062;28;20121;-66
2022/12/05 11:38:01;;;;;;;10.57;5.97;;;;;;;7.23;100.00;98493.34;5013830;28;20763;-64
2022/12/05 11:40:29;;;;;;;10.00;5.05;;;;;;;7.29;100.00;98492.03;4994765;28;20057;-66
2022/12/05 11:43:26;;;;;;;8.60;5.00;;;;;;;7.33;100.00;98485.63;5016061;28;20034;-65
2022/12/05 11:46:44;;;;;;;9.63;4.93;;;;;;;7.36;100.00;98484.59;4992857;28;20049;-61
2022/12/05 11:49:34;;;;;;;9.05;4.82;;;;;;;7.35;100.00;98478.56;4987146;28;20049;-64
2022/12/05 11:52:10;;;;;;;8.52;4.82;;;;;;;7.23;100.00;98467.50;5000211;28;20045;-62
2022/12/05 11:54:46;;;;;;;9.32;4.95;;;;;;;7.17;100.00;98462.00;4985511;28;20033;-66
2022/12/05 11:57:32;;;;;;;10.93;4.95;;;;;;;7.31;100.00;98479.78;4978912;28;20330;-66
2022/12/05 12:00:10;;;;;;;7.38;4.07;;;;;;;7.32;100.00;98481.44;5001592;28;20045;-62